sensor_id;sensor_type;location;lat;lon;timestamp;temperature;humidity
49765;DHT22;35657;51.204;-4.130;2022-08-25T00:02:08;18.40;99.90
49765;DHT22;35657;51.204;-4.130;2022-08-25T00:04:35;18.40;99.90
49765;DHT22;35657;51.204;-4.130;2022-08-25T00:07:03;18.40;99.90
49765;DHT22;35657;51.204;-4.130;2022-08-25T00:09:33;18.30;99.90
49765;DHT22;35657;51.204;-4.130;2022-08-25T00:12:11;18.30;99.90
49765;DHT22;35657;51.204;-4.130;2022-08-25T00:14:46;18.20;99.90
49765;DHT22;35657;51.204;-4.130;2022-08-25T00:17:11;18.30;99.90
49765;DHT22;35657;51.204;-4.130;2022-08-25T00:19:37;18.40;99.90
49765;DHT22;35657;51.204;-4.130;2022-08-25T00:22:09;18.30;99.90
49765;DHT22;35657;51.204;-4.130;2022-08-25T00:24:38;18.20;99.90
49765;DHT22;35657;51.204;-4.130;2022-08-25T00:27:12;18.20;99.90
49765;DHT22;35657;51.204;-4.130;2022-08-25T00:29:41;18.20;99.90
49765;DHT22;35657;51.204;-4.130;2022-08-25T00:32:06;18.10;99.90
49765;DHT22;35657;51.204;-4.130;2022-08-25T00:34:38;18.00;99.90
49765;DHT22;35657;51.204;-4.130;2022-08-25T00:37:08;18.20;99.90
49765;DHT22;35657;51.204;-4.130;2022-08-25T00:39:41;18.30;99.90
49765;DHT22;35657;51.204;-4.130;2022-08-25T00:42:12;18.40;99.90
49765;DHT22;35657;51.204;-4.130;2022-08-25T00:44:42;18.30;99.90
49765;DHT22;35657;51.204;-4.130;2022-08-25T00:47:14;18.30;99.90
49765;DHT22;35657;51.204;-4.130;2022-08-25T00:49:49;18.30;99.90
49765;DHT22;35657;51.204;-4.130;2022-08-25T00:57:51;18.20;99.90
49765;DHT22;35657;51.204;-4.130;2022-08-25T01:00:25;18.20;99.90
49765;DHT22;35657;51.204;-4.130;2022-08-25T01:02:54;18.20;99.90
49765;DHT22;35657;51.204;-4.130;2022-08-25T01:05:22;18.20;99.90
49765;DHT22;35657;51.204;-4.130;2022-08-25T01:07:55;18.20;99.90
49765;DHT22;35657;51.204;-4.130;2022-08-25T01:10:25;18.20;99.90
49765;DHT22;35657;51.204;-4.130;2022-08-25T01:12:57;18.20;99.90
49765;DHT22;35657;51.204;-4.130;2022-08-25T01:15:27;18.20;99.90
49765;DHT22;35657;51.204;-4.130;2022-08-25T01:17:57;18.20;99.90
49765;DHT22;35657;51.204;-4.130;2022-08-25T01:20:33;18.30;99.90
49765;DHT22;35657;51.204;-4.130;2022-08-25T01:23:02;18.40;99.90
49765;DHT22;35657;51.204;-4.130;2022-08-25T01:28:30;18.30;99.90
49765;DHT22;35657;51.204;-4.130;2022-08-25T01:30:56;18.40;99.90
49765;DHT22;35657;51.204;-4.130;2022-08-25T01:33:25;18.30;99.90
49765;DHT22;35657;51.204;-4.130;2022-08-25T01:35:54;18.30;99.90
49765;DHT22;35657;51.204;-4.130;2022-08-25T01:38:20;18.40;99.90
49765;DHT22;35657;51.204;-4.130;2022-08-25T01:40:46;18.30;99.90
49765;DHT22;35657;51.204;-4.130;2022-08-25T01:46:11;18.20;99.90
49765;DHT22;35657;51.204;-4.130;2022-08-25T01:48:40;18.10;99.90
49765;DHT22;35657;51.204;-4.130;2022-08-25T01:51:05;18.10;99.90
49765;DHT22;35657;51.204;-4.130;2022-08-25T01:53:57;18.10;99.90
49765;DHT22;35657;51.204;-4.130;2022-08-25T01:56:26;18.00;99.90
49765;DHT22;35657;51.204;-4.130;2022-08-25T01:58:52;18.00;99.90
49765;DHT22;35657;51.204;-4.130;2022-08-25T02:01:36;18.00;99.90
49765;DHT22;35657;51.204;-4.130;2022-08-25T02:04:02;18.00;99.90
49765;DHT22;35657;51.204;-4.130;2022-08-25T02:06:32;18.00;99.90
49765;DHT22;35657;51.204;-4.130;2022-08-25T02:09:06;18.00;99.90
49765;DHT22;35657;51.204;-4.130;2022-08-25T02:11:32;18.00;99.90
49765;DHT22;35657;51.204;-4.130;2022-08-25T02:14:00;17.90;99.90
49765;DHT22;35657;51.204;-4.130;2022-08-25T02:16:34;17.90;99.90
49765;DHT22;35657;51.204;-4.130;2022-08-25T02:19:01;17.90;99.90
49765;DHT22;35657;51.204;-4.130;2022-08-25T02:21:27;17.90;99.90
49765;DHT22;35657;51.204;-4.130;2022-08-25T02:23:56;18.10;99.90
49765;DHT22;35657;51.204;-4.130;2022-08-25T02:26:22;18.20;99.90
49765;DHT22;35657;51.204;-4.130;2022-08-25T02:28:49;18.10;99.90
49765;DHT22;35657;51.204;-4.130;2022-08-25T02:31:20;18.30;99.90
49765;DHT22;35657;51.204;-4.130;2022-08-25T02:33:53;18.30;99.90
49765;DHT22;35657;51.204;-4.130;2022-08-25T02:36:28;18.30;99.90
49765;DHT22;35657;51.204;-4.130;2022-08-25T02:38:57;18.20;99.90
49765;DHT22;35657;51.204;-4.130;2022-08-25T02:41:24;18.10;99.90
49765;DHT22;35657;51.204;-4.130;2022-08-25T02:44:00;17.90;99.90
49765;DHT22;35657;51.204;-4.130;2022-08-25T02:46:27;17.80;99.90
49765;DHT22;35657;51.204;-4.130;2022-08-25T02:48:56;17.80;99.90
49765;DHT22;35657;51.204;-4.130;2022-08-25T02:51:23;17.60;99.90
49765;DHT22;35657;51.204;-4.130;2022-08-25T02:53:57;17.70;99.90
49765;DHT22;35657;51.204;-4.130;2022-08-25T02:56:23;17.60;99.90
49765;DHT22;35657;51.204;-4.130;2022-08-25T02:58:55;17.60;99.90
49765;DHT22;35657;51.204;-4.130;2022-08-25T03:01:24;17.60;99.90
49765;DHT22;35657;51.204;-4.130;2022-08-25T03:03:56;17.60;99.90
49765;DHT22;35657;51.204;-4.130;2022-08-25T03:06:22;17.60;99.90
49765;DHT22;35657;51.204;-4.130;2022-08-25T03:08:54;17.40;99.90
49765;DHT22;35657;51.204;-4.130;2022-08-25T03:11:20;17.50;99.90
49765;DHT22;35657;51.204;-4.130;2022-08-25T03:13:49;17.70;99.90
49765;DHT22;35657;51.204;-4.130;2022-08-25T03:16:15;17.60;99.90
49765;DHT22;35657;51.204;-4.130;2022-08-25T03:18:41;17.50;99.90
49765;DHT22;35657;51.204;-4.130;2022-08-25T03:21:07;17.40;99.90
49765;DHT22;35657;51.204;-4.130;2022-08-25T03:23:37;17.60;99.90
49765;DHT22;35657;51.204;-4.130;2022-08-25T03:26:06;17.50;99.90
49765;DHT22;35657;51.204;-4.130;2022-08-25T03:28:51;17.40;99.90
49765;DHT22;35657;51.204;-4.130;2022-08-25T03:31:17;17.50;99.90
49765;DHT22;35657;51.204;-4.130;2022-08-25T03:33:43;17.40;99.90
49765;DHT22;35657;51.204;-4.130;2022-08-25T03:36:09;17.30;99.90
49765;DHT22;35657;51.204;-4.130;2022-08-25T03:38:38;17.50;99.90
49765;DHT22;35657;51.204;-4.130;2022-08-25T03:41:36;17.50;99.90
49765;DHT22;35657;51.204;-4.130;2022-08-25T03:44:06;17.50;99.90
49765;DHT22;35657;51.204;-4.130;2022-08-25T03:46:39;17.50;99.90
49765;DHT22;35657;51.204;-4.130;2022-08-25T03:49:09;17.50;99.90
49765;DHT22;35657;51.204;-4.130;2022-08-25T03:51:42;17.40;99.90
49765;DHT22;35657;51.204;-4.130;2022-08-25T03:54:10;17.40;99.90
49765;DHT22;35657;51.204;-4.130;2022-08-25T03:56:36;17.40;99.90
49765;DHT22;35657;51.204;-4.130;2022-08-25T03:59:02;17.30;99.90
49765;DHT22;35657;51.204;-4.130;2022-08-25T04:01:41;17.30;99.90
49765;DHT22;35657;51.204;-4.130;2022-08-25T04:04:12;17.30;99.90
49765;DHT22;35657;51.204;-4.130;2022-08-25T04:06:38;17.20;99.90
49765;DHT22;35657;51.204;-4.130;2022-08-25T04:09:08;17.20;99.90
49765;DHT22;35657;51.204;-4.130;2022-08-25T04:11:36;17.20;99.90
49765;DHT22;35657;51.204;-4.130;2022-08-25T04:14:05;17.10;99.90
49765;DHT22;35657;51.204;-4.130;2022-08-25T04:16:33;17.10;99.90
49765;DHT22;35657;51.204;-4.130;2022-08-25T04:19:05;17.10;99.90
49765;DHT22;35657;51.204;-4.130;2022-08-25T04:21:40;17.10;99.90
49765;DHT22;35657;51.204;-4.130;2022-08-25T04:24:11;17.00;99.90
49765;DHT22;35657;51.204;-4.130;2022-08-25T04:26:46;17.10;99.90
49765;DHT22;35657;51.204;-4.130;2022-08-25T04:29:17;17.10;99.90
49765;DHT22;35657;51.204;-4.130;2022-08-25T04:31:49;17.00;99.90
49765;DHT22;35657;51.204;-4.130;2022-08-25T04:34:21;17.00;99.90
49765;DHT22;35657;51.204;-4.130;2022-08-25T04:36:47;17.00;99.90
49765;DHT22;35657;51.204;-4.130;2022-08-25T04:39:18;17.00;99.90
49765;DHT22;35657;51.204;-4.130;2022-08-25T04:41:48;17.00;99.90
49765;DHT22;35657;51.204;-4.130;2022-08-25T04:44:17;16.90;99.90
49765;DHT22;35657;51.204;-4.130;2022-08-25T04:46:44;16.90;99.90
49765;DHT22;35657;51.204;-4.130;2022-08-25T04:49:14;16.90;99.90
49765;DHT22;35657;51.204;-4.130;2022-08-25T04:51:40;16.90;99.90
49765;DHT22;35657;51.204;-4.130;2022-08-25T04:54:14;16.90;99.90
49765;DHT22;35657;51.204;-4.130;2022-08-25T04:56:47;17.00;99.90
49765;DHT22;35657;51.204;-4.130;2022-08-25T04:59:16;17.00;99.90
49765;DHT22;35657;51.204;-4.130;2022-08-25T05:01:43;17.00;99.90
49765;DHT22;35657;51.204;-4.130;2022-08-25T05:04:12;17.00;99.90
49765;DHT22;35657;51.204;-4.130;2022-08-25T05:06:39;17.00;99.90
49765;DHT22;35657;51.204;-4.130;2022-08-25T05:09:09;17.00;99.90
49765;DHT22;35657;51.204;-4.130;2022-08-25T05:11:38;17.00;99.90
49765;DHT22;35657;51.204;-4.130;2022-08-25T05:14:04;17.00;99.90
49765;DHT22;35657;51.204;-4.130;2022-08-25T05:16:41;17.10;99.90
49765;DHT22;35657;51.204;-4.130;2022-08-25T05:19:13;17.10;99.90
49765;DHT22;35657;51.204;-4.130;2022-08-25T05:21:39;17.20;99.90
49765;DHT22;35657;51.204;-4.130;2022-08-25T05:24:10;17.20;99.90
49765;DHT22;35657;51.204;-4.130;2022-08-25T05:26:40;17.10;99.90
49765;DHT22;35657;51.204;-4.130;2022-08-25T05:29:11;17.10;99.90
49765;DHT22;35657;51.204;-4.130;2022-08-25T05:31:37;17.00;99.90
49765;DHT22;35657;51.204;-4.130;2022-08-25T05:34:07;17.00;99.90
49765;DHT22;35657;51.204;-4.130;2022-08-25T05:36:33;17.10;99.90
49765;DHT22;35657;51.204;-4.130;2022-08-25T05:39:02;17.10;99.90
49765;DHT22;35657;51.204;-4.130;2022-08-25T05:41:29;17.10;99.90
49765;DHT22;35657;51.204;-4.130;2022-08-25T05:43:59;17.00;99.90
49765;DHT22;35657;51.204;-4.130;2022-08-25T05:46:33;17.00;99.90
49765;DHT22;35657;51.204;-4.130;2022-08-25T05:49:02;17.10;99.90
49765;DHT22;35657;51.204;-4.130;2022-08-25T05:51:29;17.20;99.90
49765;DHT22;35657;51.204;-4.130;2022-08-25T05:53:57;17.10;99.90
49765;DHT22;35657;51.204;-4.130;2022-08-25T05:56:27;17.00;99.90
49765;DHT22;35657;51.204;-4.130;2022-08-25T05:58:53;17.10;99.90
49765;DHT22;35657;51.204;-4.130;2022-08-25T06:01:25;17.10;99.90
49765;DHT22;35657;51.204;-4.130;2022-08-25T06:04:09;17.10;99.90
49765;DHT22;35657;51.204;-4.130;2022-08-25T06:06:41;17.20;99.90
49765;DHT22;35657;51.204;-4.130;2022-08-25T06:09:07;17.10;99.90
49765;DHT22;35657;51.204;-4.130;2022-08-25T06:11:38;17.10;99.90
49765;DHT22;35657;51.204;-4.130;2022-08-25T06:14:15;17.00;99.90
49765;DHT22;35657;51.204;-4.130;2022-08-25T06:16:44;17.00;99.90
49765;DHT22;35657;51.204;-4.130;2022-08-25T06:19:16;17.10;99.90
49765;DHT22;35657;51.204;-4.130;2022-08-25T06:21:42;17.00;99.90
49765;DHT22;35657;51.204;-4.130;2022-08-25T06:24:13;17.00;99.90
49765;DHT22;35657;51.204;-4.130;2022-08-25T06:26:39;17.00;99.90
49765;DHT22;35657;51.204;-4.130;2022-08-25T06:29:11;17.00;99.90
49765;DHT22;35657;51.204;-4.130;2022-08-25T06:31:43;17.00;99.90
49765;DHT22;35657;51.204;-4.130;2022-08-25T06:34:16;17.00;99.90
49765;DHT22;35657;51.204;-4.130;2022-08-25T06:36:44;17.00;99.90
49765;DHT22;35657;51.204;-4.130;2022-08-25T06:39:13;17.00;99.90
49765;DHT22;35657;51.204;-4.130;2022-08-25T06:41:49;16.90;99.90
49765;DHT22;35657;51.204;-4.130;2022-08-25T06:44:15;17.00;99.90
49765;DHT22;35657;51.204;-4.130;2022-08-25T06:46:47;17.00;99.90
49765;DHT22;35657;51.204;-4.130;2022-08-25T06:49:16;17.10;99.90
49765;DHT22;35657;51.204;-4.130;2022-08-25T06:51:42;17.10;99.90
49765;DHT22;35657;51.204;-4.130;2022-08-25T06:54:11;17.10;99.90
49765;DHT22;35657;51.204;-4.130;2022-08-25T06:56:38;17.00;99.90
49765;DHT22;35657;51.204;-4.130;2022-08-25T06:59:16;16.90;99.90
49765;DHT22;35657;51.204;-4.130;2022-08-25T07:01:42;16.90;99.90
49765;DHT22;35657;51.204;-4.130;2022-08-25T07:04:16;16.80;99.90
49765;DHT22;35657;51.204;-4.130;2022-08-25T07:06:43;16.90;99.90
49765;DHT22;35657;51.204;-4.130;2022-08-25T07:09:14;16.80;99.90
49765;DHT22;35657;51.204;-4.130;2022-08-25T07:11:42;16.90;99.90
49765;DHT22;35657;51.204;-4.130;2022-08-25T07:14:10;16.90;99.90
49765;DHT22;35657;51.204;-4.130;2022-08-25T07:16:40;16.90;99.90
49765;DHT22;35657;51.204;-4.130;2022-08-25T07:19:07;16.90;99.90
49765;DHT22;35657;51.204;-4.130;2022-08-25T07:21:35;16.90;99.90
49765;DHT22;35657;51.204;-4.130;2022-08-25T07:24:10;17.00;99.90
49765;DHT22;35657;51.204;-4.130;2022-08-25T07:26:40;17.00;99.90
49765;DHT22;35657;51.204;-4.130;2022-08-25T07:29:13;17.10;99.90
49765;DHT22;35657;51.204;-4.130;2022-08-25T07:31:40;17.10;99.90
49765;DHT22;35657;51.204;-4.130;2022-08-25T07:34:09;17.20;99.90
49765;DHT22;35657;51.204;-4.130;2022-08-25T07:37:02;17.20;99.90
49765;DHT22;35657;51.204;-4.130;2022-08-25T07:39:47;17.20;99.90
49765;DHT22;35657;51.204;-4.130;2022-08-25T07:42:16;17.20;99.90
49765;DHT22;35657;51.204;-4.130;2022-08-25T07:44:41;17.20;99.90
49765;DHT22;35657;51.204;-4.130;2022-08-25T07:47:07;17.20;99.90
49765;DHT22;35657;51.204;-4.130;2022-08-25T07:49:33;17.10;99.90
49765;DHT22;35657;51.204;-4.130;2022-08-25T07:51:59;17.20;99.90
49765;DHT22;35657;51.204;-4.130;2022-08-25T07:54:27;17.20;99.90
49765;DHT22;35657;51.204;-4.130;2022-08-25T07:57:13;17.20;99.90
49765;DHT22;35657;51.204;-4.130;2022-08-25T07:59:48;17.20;99.90
49765;DHT22;35657;51.204;-4.130;2022-08-25T08:02:14;17.20;99.90
49765;DHT22;35657;51.204;-4.130;2022-08-25T08:04:46;17.30;99.90
49765;DHT22;35657;51.204;-4.130;2022-08-25T08:07:18;17.40;99.90
49765;DHT22;35657;51.204;-4.130;2022-08-25T08:09:44;17.40;99.90
49765;DHT22;35657;51.204;-4.130;2022-08-25T08:12:09;17.40;99.90
49765;DHT22;35657;51.204;-4.130;2022-08-25T08:14:39;17.50;99.90
49765;DHT22;35657;51.204;-4.130;2022-08-25T08:17:07;17.50;99.90
49765;DHT22;35657;51.204;-4.130;2022-08-25T08:19:39;17.60;99.90
49765;DHT22;35657;51.204;-4.130;2022-08-25T08:22:05;17.60;99.90
49765;DHT22;35657;51.204;-4.130;2022-08-25T08:24:32;17.60;99.90
49765;DHT22;35657;51.204;-4.130;2022-08-25T08:27:05;17.70;99.90
49765;DHT22;35657;51.204;-4.130;2022-08-25T08:29:32;17.70;99.90
49765;DHT22;35657;51.204;-4.130;2022-08-25T08:31:58;17.70;99.90
49765;DHT22;35657;51.204;-4.130;2022-08-25T08:34:30;17.70;99.90
49765;DHT22;35657;51.204;-4.130;2022-08-25T08:37:08;17.80;99.90
49765;DHT22;35657;51.204;-4.130;2022-08-25T08:39:36;17.90;99.90
49765;DHT22;35657;51.204;-4.130;2022-08-25T08:43:13;18.00;99.90
49765;DHT22;35657;51.204;-4.130;2022-08-25T08:48:21;18.00;99.90
49765;DHT22;35657;51.204;-4.130;2022-08-25T08:51:19;18.10;99.90
49765;DHT22;35657;51.204;-4.130;2022-08-25T08:56:44;18.20;99.90
49765;DHT22;35657;51.204;-4.130;2022-08-25T08:59:24;18.30;99.90
49765;DHT22;35657;51.204;-4.130;2022-08-25T09:01:56;18.40;99.90
49765;DHT22;35657;51.204;-4.130;2022-08-25T09:04:38;18.50;99.90
49765;DHT22;35657;51.204;-4.130;2022-08-25T09:07:18;18.60;99.90
49765;DHT22;35657;51.204;-4.130;2022-08-25T09:09:47;18.70;99.90
49765;DHT22;35657;51.204;-4.130;2022-08-25T09:18:01;19.00;99.90
49765;DHT22;35657;51.204;-4.130;2022-08-25T09:20:50;19.00;99.90
49765;DHT22;35657;51.204;-4.130;2022-08-25T09:26:13;19.00;99.90
49765;DHT22;35657;51.204;-4.130;2022-08-25T09:29:00;19.00;99.90
49765;DHT22;35657;51.204;-4.130;2022-08-25T09:31:32;19.20;99.90
49765;DHT22;35657;51.204;-4.130;2022-08-25T09:34:03;19.20;99.90
49765;DHT22;35657;51.204;-4.130;2022-08-25T09:36:30;19.30;99.90
49765;DHT22;35657;51.204;-4.130;2022-08-25T09:38:59;19.40;99.90
49765;DHT22;35657;51.204;-4.130;2022-08-25T09:41:41;19.50;99.90
49765;DHT22;35657;51.204;-4.130;2022-08-25T09:49:43;19.50;99.90
49765;DHT22;35657;51.204;-4.130;2022-08-25T09:54:52;19.70;99.90
49765;DHT22;35657;51.204;-4.130;2022-08-25T09:57:47;20.00;99.90
49765;DHT22;35657;51.204;-4.130;2022-08-25T10:03:20;20.10;99.90
49765;DHT22;35657;51.204;-4.130;2022-08-25T10:06:06;20.30;99.90
49765;DHT22;35657;51.204;-4.130;2022-08-25T10:08:59;20.70;99.90
49765;DHT22;35657;51.204;-4.130;2022-08-25T10:11:40;21.10;99.90
49765;DHT22;35657;51.204;-4.130;2022-08-25T10:16:50;21.30;99.90
49765;DHT22;35657;51.204;-4.130;2022-08-25T10:19:27;21.50;99.90
49765;DHT22;35657;51.204;-4.130;2022-08-25T10:24:43;21.90;99.90
49765;DHT22;35657;51.204;-4.130;2022-08-25T10:27:23;22.20;99.90
49765;DHT22;35657;51.204;-4.130;2022-08-25T10:30:16;22.40;99.90
49765;DHT22;35657;51.204;-4.130;2022-08-25T10:38:41;22.30;99.90
49765;DHT22;35657;51.204;-4.130;2022-08-25T10:41:39;22.40;99.90
49765;DHT22;35657;51.204;-4.130;2022-08-25T10:44:15;22.30;99.90
49765;DHT22;35657;51.204;-4.130;2022-08-25T10:49:47;22.20;99.90
49765;DHT22;35657;51.204;-4.130;2022-08-25T10:52:23;22.20;99.90
49765;DHT22;35657;51.204;-4.130;2022-08-25T10:58:00;22.00;99.90
49765;DHT22;35657;51.204;-4.130;2022-08-25T11:00:37;22.00;99.90
49765;DHT22;35657;51.204;-4.130;2022-08-25T11:08:35;22.60;99.90
49765;DHT22;35657;51.204;-4.130;2022-08-25T11:12:04;22.80;99.90
49765;DHT22;35657;51.204;-4.130;2022-08-25T11:14:56;22.70;99.90
49765;DHT22;35657;51.204;-4.130;2022-08-25T11:17:39;23.00;99.90
49765;DHT22;35657;51.204;-4.130;2022-08-25T11:20:15;23.10;99.90
49765;DHT22;35657;51.204;-4.130;2022-08-25T11:25:36;23.30;99.90
49765;DHT22;35657;51.204;-4.130;2022-08-25T11:28:10;23.50;99.90
49765;DHT22;35657;51.204;-4.130;2022-08-25T11:30:37;23.70;99.90
49765;DHT22;35657;51.204;-4.130;2022-08-25T11:33:11;23.70;99.90
49765;DHT22;35657;51.204;-4.130;2022-08-25T11:35:46;23.90;99.90
49765;DHT22;35657;51.204;-4.130;2022-08-25T11:38:34;23.60;99.90
49765;DHT22;35657;51.204;-4.130;2022-08-25T11:42:14;23.60;99.90
49765;DHT22;35657;51.204;-4.130;2022-08-25T11:50:22;24.00;99.90
49765;DHT22;35657;51.204;-4.130;2022-08-25T11:52:59;23.90;99.90
49765;DHT22;35657;51.204;-4.130;2022-08-25T11:55:51;24.00;99.90
49765;DHT22;35657;51.204;-4.130;2022-08-25T12:00:57;23.60;99.90
49765;DHT22;35657;51.204;-4.130;2022-08-25T12:06:30;23.30;99.90
49765;DHT22;35657;51.204;-4.130;2022-08-25T12:17:04;23.60;99.90
49765;DHT22;35657;51.204;-4.130;2022-08-25T12:30:00;23.10;99.90
49765;DHT22;35657;51.204;-4.130;2022-08-25T12:32:44;22.90;99.90
49765;DHT22;35657;51.204;-4.130;2022-08-25T12:43:21;22.30;99.90
49765;DHT22;35657;51.204;-4.130;2022-08-25T12:45:51;22.00;99.90
49765;DHT22;35657;51.204;-4.130;2022-08-25T12:51:02;21.20;99.90
49765;DHT22;35657;51.204;-4.130;2022-08-25T12:53:38;21.40;99.90
49765;DHT22;35657;51.204;-4.130;2022-08-25T12:56:36;20.80;99.90
49765;DHT22;35657;51.204;-4.130;2022-08-25T13:04:41;21.40;99.90
49765;DHT22;35657;51.204;-4.130;2022-08-25T13:20:47;21.20;99.90
49765;DHT22;35657;51.204;-4.130;2022-08-25T13:23:18;20.70;99.90
49765;DHT22;35657;51.204;-4.130;2022-08-25T13:25:49;20.50;99.90
49765;DHT22;35657;51.204;-4.130;2022-08-25T13:28:30;20.60;99.90
49765;DHT22;35657;51.204;-4.130;2022-08-25T13:31:01;20.20;99.90
49765;DHT22;35657;51.204;-4.130;2022-08-25T13:33:28;20.30;99.90
49765;DHT22;35657;51.204;-4.130;2022-08-25T13:35:55;20.70;99.90
49765;DHT22;35657;51.204;-4.130;2022-08-25T13:38:42;20.80;99.90
49765;DHT22;35657;51.204;-4.130;2022-08-25T13:41:08;20.60;99.90
49765;DHT22;35657;51.204;-4.130;2022-08-25T13:43:36;20.20;99.90
49765;DHT22;35657;51.204;-4.130;2022-08-25T13:46:03;19.90;99.90
49765;DHT22;35657;51.204;-4.130;2022-08-25T13:48:37;19.80;99.90
49765;DHT22;35657;51.204;-4.130;2022-08-25T13:51:22;19.70;99.90
49765;DHT22;35657;51.204;-4.130;2022-08-25T13:53:59;19.50;99.90
49765;DHT22;35657;51.204;-4.130;2022-08-25T13:56:35;19.60;99.90
49765;DHT22;35657;51.204;-4.130;2022-08-25T13:59:04;19.70;99.90
49765;DHT22;35657;51.204;-4.130;2022-08-25T14:01:42;19.60;99.90
49765;DHT22;35657;51.204;-4.130;2022-08-25T14:07:07;19.40;99.90
49765;DHT22;35657;51.204;-4.130;2022-08-25T14:12:31;19.30;99.90
49765;DHT22;35657;51.204;-4.130;2022-08-25T14:17:47;19.30;99.90
49765;DHT22;35657;51.204;-4.130;2022-08-25T14:20:26;19.10;99.90
49765;DHT22;35657;51.204;-4.130;2022-08-25T14:23:01;19.20;99.90
49765;DHT22;35657;51.204;-4.130;2022-08-25T14:25:34;19.10;99.90
49765;DHT22;35657;51.204;-4.130;2022-08-25T14:28:02;19.10;99.90
49765;DHT22;35657;51.204;-4.130;2022-08-25T14:30:30;19.10;99.90
49765;DHT22;35657;51.204;-4.130;2022-08-25T14:32:57;19.20;99.90
49765;DHT22;35657;51.204;-4.130;2022-08-25T14:35:25;19.10;99.90
49765;DHT22;35657;51.204;-4.130;2022-08-25T14:37:51;19.20;99.90
49765;DHT22;35657;51.204;-4.130;2022-08-25T14:40:17;19.20;99.90
49765;DHT22;35657;51.204;-4.130;2022-08-25T14:42:45;19.00;99.90
49765;DHT22;35657;51.204;-4.130;2022-08-25T14:45:13;19.00;99.90
49765;DHT22;35657;51.204;-4.130;2022-08-25T14:47:43;19.00;99.90
49765;DHT22;35657;51.204;-4.130;2022-08-25T14:50:12;19.00;99.90
49765;DHT22;35657;51.204;-4.130;2022-08-25T14:52:40;19.00;99.90
49765;DHT22;35657;51.204;-4.130;2022-08-25T14:55:10;18.90;99.90
49765;DHT22;35657;51.204;-4.130;2022-08-25T14:57:39;18.70;99.90
49765;DHT22;35657;51.204;-4.130;2022-08-25T15:00:09;18.80;99.90
49765;DHT22;35657;51.204;-4.130;2022-08-25T15:02:42;18.70;99.90
49765;DHT22;35657;51.204;-4.130;2022-08-25T15:05:16;18.80;99.90
49765;DHT22;35657;51.204;-4.130;2022-08-25T15:07:45;18.90;99.90
49765;DHT22;35657;51.204;-4.130;2022-08-25T15:10:29;18.80;99.90
49765;DHT22;35657;51.204;-4.130;2022-08-25T15:12:55;18.90;99.90
49765;DHT22;35657;51.204;-4.130;2022-08-25T15:15:21;18.80;99.90
49765;DHT22;35657;51.204;-4.130;2022-08-25T15:17:49;18.70;99.90
49765;DHT22;35657;51.204;-4.130;2022-08-25T15:20:15;18.80;99.90
49765;DHT22;35657;51.204;-4.130;2022-08-25T15:22:41;18.80;99.90
49765;DHT22;35657;51.204;-4.130;2022-08-25T15:25:08;18.80;99.90
49765;DHT22;35657;51.204;-4.130;2022-08-25T15:27:34;18.80;99.90
49765;DHT22;35657;51.204;-4.130;2022-08-25T15:30:03;18.70;99.90
49765;DHT22;35657;51.204;-4.130;2022-08-25T15:32:38;18.60;99.90
49765;DHT22;35657;51.204;-4.130;2022-08-25T15:35:04;19.00;99.90
49765;DHT22;35657;51.204;-4.130;2022-08-25T15:37:31;18.90;99.90
49765;DHT22;35657;51.204;-4.130;2022-08-25T15:39:57;18.80;99.90
49765;DHT22;35657;51.204;-4.130;2022-08-25T15:42:25;18.80;99.90
49765;DHT22;35657;51.204;-4.130;2022-08-25T15:44:51;18.80;99.90
49765;DHT22;35657;51.204;-4.130;2022-08-25T15:47:16;18.80;99.90
49765;DHT22;35657;51.204;-4.130;2022-08-25T15:49:43;18.60;99.90
49765;DHT22;35657;51.204;-4.130;2022-08-25T15:52:12;18.70;99.90
49765;DHT22;35657;51.204;-4.130;2022-08-25T15:54:40;18.50;99.90
49765;DHT22;35657;51.204;-4.130;2022-08-25T15:57:09;18.40;99.90
49765;DHT22;35657;51.204;-4.130;2022-08-25T15:59:35;18.50;99.90
49765;DHT22;35657;51.204;-4.130;2022-08-25T16:02:00;18.40;99.90
49765;DHT22;35657;51.204;-4.130;2022-08-25T16:04:29;18.40;99.90
49765;DHT22;35657;51.204;-4.130;2022-08-25T16:06:55;18.30;99.90
49765;DHT22;35657;51.204;-4.130;2022-08-25T16:09:24;18.30;99.90
49765;DHT22;35657;51.204;-4.130;2022-08-25T16:11:50;18.30;99.90
49765;DHT22;35657;51.204;-4.130;2022-08-25T16:14:16;18.50;99.90
49765;DHT22;35657;51.204;-4.130;2022-08-25T16:16:43;18.40;99.90
49765;DHT22;35657;51.204;-4.130;2022-08-25T16:19:11;18.30;99.90
49765;DHT22;35657;51.204;-4.130;2022-08-25T16:21:42;18.40;99.90
49765;DHT22;35657;51.204;-4.130;2022-08-25T16:24:12;18.40;99.90
49765;DHT22;35657;51.204;-4.130;2022-08-25T16:26:38;18.50;99.90
49765;DHT22;35657;51.204;-4.130;2022-08-25T16:29:10;18.50;99.90
49765;DHT22;35657;51.204;-4.130;2022-08-25T16:31:36;18.40;99.90
49765;DHT22;35657;51.204;-4.130;2022-08-25T16:34:08;18.60;99.90
49765;DHT22;35657;51.204;-4.130;2022-08-25T16:36:37;18.40;99.90
49765;DHT22;35657;51.204;-4.130;2022-08-25T16:39:04;18.40;99.90
49765;DHT22;35657;51.204;-4.130;2022-08-25T16:41:31;18.60;99.90
49765;DHT22;35657;51.204;-4.130;2022-08-25T16:44:04;18.50;99.90
49765;DHT22;35657;51.204;-4.130;2022-08-25T16:46:34;18.70;99.90
49765;DHT22;35657;51.204;-4.130;2022-08-25T16:49:04;18.70;99.90
49765;DHT22;35657;51.204;-4.130;2022-08-25T16:51:31;18.60;99.90
49765;DHT22;35657;51.204;-4.130;2022-08-25T16:53:59;18.60;99.90
49765;DHT22;35657;51.204;-4.130;2022-08-25T16:56:46;18.90;99.90
49765;DHT22;35657;51.204;-4.130;2022-08-25T16:59:15;19.00;99.90
49765;DHT22;35657;51.204;-4.130;2022-08-25T17:01:42;18.90;99.90
49765;DHT22;35657;51.204;-4.130;2022-08-25T17:04:11;18.70;99.90
49765;DHT22;35657;51.204;-4.130;2022-08-25T17:06:41;19.00;99.90
49765;DHT22;35657;51.204;-4.130;2022-08-25T17:09:10;18.90;99.90
49765;DHT22;35657;51.204;-4.130;2022-08-25T17:11:44;19.10;99.90
49765;DHT22;35657;51.204;-4.130;2022-08-25T17:14:14;19.20;99.90
49765;DHT22;35657;51.204;-4.130;2022-08-25T17:16:46;19.20;99.90
49765;DHT22;35657;51.204;-4.130;2022-08-25T17:19:15;19.30;99.90
49765;DHT22;35657;51.204;-4.130;2022-08-25T17:21:42;19.10;99.90
49765;DHT22;35657;51.204;-4.130;2022-08-25T17:24:10;19.00;99.90
49765;DHT22;35657;51.204;-4.130;2022-08-25T17:26:38;19.10;99.90
49765;DHT22;35657;51.204;-4.130;2022-08-25T17:29:04;19.00;99.90
49765;DHT22;35657;51.204;-4.130;2022-08-25T17:31:31;19.00;99.90
49765;DHT22;35657;51.204;-4.130;2022-08-25T17:34:01;19.10;99.90
49765;DHT22;35657;51.204;-4.130;2022-08-25T17:36:27;18.90;99.90
49765;DHT22;35657;51.204;-4.130;2022-08-25T17:38:54;18.70;99.90
49765;DHT22;35657;51.204;-4.130;2022-08-25T17:41:20;18.70;99.90
49765;DHT22;35657;51.204;-4.130;2022-08-25T17:43:46;18.80;99.90
49765;DHT22;35657;51.204;-4.130;2022-08-25T17:46:12;18.90;99.90
49765;DHT22;35657;51.204;-4.130;2022-08-25T17:48:39;18.90;99.90
49765;DHT22;35657;51.204;-4.130;2022-08-25T17:51:05;18.80;99.90
49765;DHT22;35657;51.204;-4.130;2022-08-25T17:53:35;18.90;99.90